Time;durP1;ratioP1;P1;durP2;ratioP2;P2;SDS_P1;SDS_P2;PMS_P1;PMS_P2;Temp;Humidity;BMP_temperature;BMP_pressure;BME280_temperature;BME280_humidity;BME280_pressure;Samples;Min_cycle;Max_cycle;Signal;HPM_P1;HPM_P2
2021/11/20 00:00:40;;;;;;;10.70;7.10;;;;;;;7.70;89.23;99713.97;4157853;28;20013;-72
2021/11/20 00:02:41;;;;;;;9.25;6.20;;;;;;;7.69;89.43;99714.25;4155804;28;20084;-72
2021/11/20 00:04:43;;;;;;;8.55;6.65;;;;;;;7.66;89.67;99706.66;4158700;28;20517;-72
2021/11/20 00:06:46;;;;;;;12.30;6.80;;;;;;;7.66;89.87;99713.00;4155301;28;20381;-72
2021/11/20 00:08:48;;;;;;;10.15;7.07;;;;;;;7.65;89.67;99705.88;4154771;28;20298;-72
2021/11/20 00:10:54;;;;;;;12.93;7.32;;;;;;;7.63;90.39;99699.88;4155931;28;20041;-72
2021/11/20 00:12:55;;;;;;;12.18;7.28;;;;;;;7.61;90.74;99704.88;4160650;28;20052;-73
2021/11/20 00:14:58;;;;;;;13.07;7.30;;;;;;;7.58;90.89;99703.59;4154094;28;20473;-72
2021/11/20 00:17:01;;;;;;;12.60;7.30;;;;;;;7.58;91.14;99694.53;4160050;28;20187;-72
2021/11/20 00:19:02;;;;;;;12.27;7.55;;;;;;;7.54;91.18;99690.84;4157135;28;20040;-72
2021/11/20 00:21:07;;;;;;;12.77;7.32;;;;;;;7.55;91.14;99690.50;4156719;28;20045;-72
2021/11/20 00:23:08;;;;;;;11.63;7.47;;;;;;;7.57;91.40;99692.94;4154305;28;20453;-72
2021/11/20 00:25:23;;;;;;;10.27;7.15;;;;;;;7.55;91.68;99697.97;4154371;28;20077;-72
2021/11/20 00:27:32;;;;;;;12.40;7.40;;;;;;;7.55;91.29;99692.44;4156937;28;20037;-72
2021/11/20 00:29:47;;;;;;;9.05;6.50;;;;;;;7.59;91.52;99685.94;4160763;28;20053;-72
2021/11/20 00:31:57;;;;;;;10.00;6.85;;;;;;;7.61;90.99;99693.88;4154540;28;20377;-72
2021/11/20 00:33:59;;;;;;;10.52;7.50;;;;;;;7.69;91.08;99692.22;4156185;28;20116;-72
2021/11/20 00:36:01;;;;;;;12.23;7.00;;;;;;;7.66;90.91;99688.19;4155682;28;20049;-72
2021/11/20 00:38:04;;;;;;;11.20;7.32;;;;;;;7.65;91.46;99685.78;4157421;28;20118;-72
2021/11/20 00:40:06;;;;;;;;;;;;;;;7.66;91.45;99699.22;4156092;28;20393;-72
2021/11/20 00:42:08;;;;;;;10.57;7.35;;;;;;;7.70;91.56;99689.16;4154523;28;19955;-72
2021/11/20 00:44:09;;;;;;;11.00;7.28;;;;;;;7.67;90.86;99687.06;4154149;28;20486;-72
2021/11/20 00:46:11;;;;;;;12.07;7.93;;;;;;;7.66;91.67;99681.88;4154408;28;20026;-72
2021/11/20 00:48:13;;;;;;;12.57;8.07;;;;;;;7.68;90.98;99682.34;4155035;28;20032;-73
2021/11/20 00:50:17;;;;;;;12.15;7.55;;;;;;;7.66;91.19;99679.13;4154285;28;20306;-72
2021/11/20 00:52:18;;;;;;;11.15;7.50;;;;;;;7.66;91.54;99679.13;4154692;28;20528;-72
2021/11/20 00:54:19;;;;;;;11.50;7.18;;;;;;;7.67;91.84;99683.50;4154349;28;20029;-72
2021/11/20 00:56:22;;;;;;;10.20;7.30;;;;;;;7.68;91.82;99683.16;4155351;28;20029;-72
2021/11/20 00:58:23;;;;;;;12.00;7.38;;;;;;;7.73;91.55;99690.44;4154773;28;20048;-72
2021/11/20 01:00:28;;;;;;;12.37;7.30;;;;;;;7.71;91.20;99681.72;4154513;28;20041;-72
2021/11/20 01:02:28;;;;;;;9.38;6.57;;;;;;;7.71;91.32;99674.25;4158565;28;20046;-72
2021/11/20 01:04:30;;;;;;;11.35;7.07;;;;;;;7.70;92.16;99674.59;4156593;28;20038;-72
2021/11/20 01:06:31;;;;;;;10.85;7.55;;;;;;;7.70;92.04;99669.88;4158927;28;20452;-72
2021/11/20 01:08:36;;;;;;;9.32;6.88;;;;;;;7.71;91.92;99666.00;4157118;28;20046;-72
2021/11/20 01:10:39;;;;;;;12.68;7.88;;;;;;;7.69;92.25;99676.50;4161155;28;20065;-72
2021/11/20 01:12:40;;;;;;;9.68;6.88;;;;;;;7.70;92.22;99685.59;4159619;28;20052;-72
2021/11/20 01:14:43;;;;;;;12.65;7.72;;;;;;;7.74;92.05;99670.81;4157845;28;20061;-72
2021/11/20 01:16:47;;;;;;;15.60;8.02;;;;;;;7.76;91.89;99671.28;4160513;28;20079;-72
2021/11/20 01:18:48;;;;;;;11.02;7.70;;;;;;;7.77;91.90;99672.09;4161887;28;20324;-72
2021/11/20 01:20:49;;;;;;;13.18;7.57;;;;;;;7.79;91.43;99667.09;4166756;28;20069;-72
2021/11/20 01:22:50;;;;;;;10.85;6.93;;;;;;;7.79;91.68;99675.38;4161755;28;20463;-72
2021/11/20 01:24:50;;;;;;;12.23;7.95;;;;;;;7.79;92.08;99684.44;4158096;28;20464;-72
2021/11/20 01:26:53;;;;;;;10.50;7.10;;;;;;;7.82;92.34;99672.75;4160502;28;20469;-72
2021/11/20 01:28:55;;;;;;;13.13;7.85;;;;;;;7.82;91.62;99681.00;4157861;28;20045;-72
2021/11/20 01:30:57;;;;;;;9.88;7.13;;;;;;;7.82;91.84;99669.97;4157738;28;20042;-72
2021/11/20 01:32:58;;;;;;;13.48;7.63;;;;;;;7.78;91.92;99669.03;4158278;28;20132;-72
2021/11/20 01:34:58;;;;;;;12.10;8.00;;;;;;;7.78;92.73;99663.53;4156870;28;20575;-72
2021/11/20 01:37:01;;;;;;;10.65;7.43;;;;;;;7.81;92.59;99675.84;4157736;28;20033;-72
2021/11/20 01:39:04;;;;;;;;;;;;;;;7.79;92.32;99675.38;4159386;28;20061;-72
2021/11/20 01:41:05;;;;;;;9.50;6.75;;;;;;;7.75;92.54;99666.94;4159616;28;19928;-72
2021/11/20 01:43:07;;;;;;;11.25;7.60;;;;;;;7.71;92.68;99662.44;4158803;28;20042;-72
2021/11/20 01:45:16;;;;;;;10.82;7.45;;;;;;;7.72;93.19;99664.03;4155879;28;20046;-72
2021/11/20 01:47:26;;;;;;;13.90;7.10;;;;;;;7.69;93.40;99659.97;4159359;28;20492;-72
2021/11/20 01:49:31;;;;;;;11.20;7.43;;;;;;;7.69;93.68;99659.16;4160684;28;20044;-72
2021/11/20 01:51:37;;;;;;;10.82;6.78;;;;;;;7.68;93.49;99655.63;4162773;28;20038;-72
2021/11/20 01:54:07;;;;;;;9.63;7.25;;;;;;;7.69;93.77;99661.94;4156416;28;20096;-72
2021/11/20 01:56:16;;;;;;;14.95;8.00;;;;;;;7.67;93.73;99659.50;4139227;28;20053;-72
2021/11/20 01:58:22;;;;;;;9.98;6.45;;;;;;;7.66;93.98;99662.59;4162793;28;20033;-73
2021/11/20 02:00:33;;;;;;;10.68;6.95;;;;;;;7.66;93.73;99660.66;4158022;28;20034;-72
2021/11/20 02:02:45;;;;;;;10.93;7.35;;;;;;;7.67;93.70;99661.47;4156056;28;20065;-72
2021/11/20 02:04:45;;;;;;;13.18;6.88;;;;;;;7.66;93.95;99657.09;4157316;28;20045;-72
2021/11/20 02:06:53;;;;;;;9.48;7.07;;;;;;;7.65;94.06;99650.78;4157226;28;20061;-72
2021/11/20 02:09:01;;;;;;;9.98;7.22;;;;;;;7.67;93.97;99655.94;4158652;28;20053;-72
2021/11/20 02:11:10;;;;;;;10.50;7.13;;;;;;;7.66;94.21;99646.06;4157813;28;20049;-72
2021/11/20 02:13:14;;;;;;;12.57;7.72;;;;;;;7.65;94.24;99641.69;4160721;28;20045;-72
2021/11/20 02:15:22;;;;;;;11.10;7.35;;;;;;;7.68;93.79;99652.84;4159916;28;20191;-72
2021/11/20 02:17:35;;;;;;;9.40;6.47;;;;;;;7.66;94.11;99641.38;4156824;28;20056;-72
2021/11/20 02:19:41;;;;;;;14.00;8.35;;;;;;;7.72;93.97;99642.81;4156671;28;20057;-72
2021/11/20 02:21:54;;;;;;;11.57;7.72;;;;;;;7.78;93.83;99641.50;4159658;28;20041;-72
2021/11/20 02:23:55;;;;;;;;;;;;;;;7.79;93.92;99639.53;4156427;28;20103;-72
2021/11/20 02:25:56;;;;;;;11.68;7.50;;;;;;;7.80;93.56;99646.66;4155698;28;19917;-72
2021/11/20 02:27:57;;;;;;;13.90;8.13;;;;;;;7.78;93.47;99640.69;4157118;28;20055;-72
2021/11/20 02:30:13;;;;;;;10.65;7.03;;;;;;;7.77;93.85;99637.09;4159659;28;20438;-72
2021/11/20 02:32:22;;;;;;;10.13;7.40;;;;;;;7.79;93.50;99634.84;4156506;28;20102;-72
2021/11/20 02:34:26;;;;;;;13.02;7.63;;;;;;;7.79;93.70;99634.84;4157418;28;20123;-72
2021/11/20 02:36:26;;;;;;;11.55;7.35;;;;;;;7.77;93.84;99636.28;4157475;28;20508;-72
2021/11/20 02:38:30;;;;;;;12.90;7.75;;;;;;;7.84;93.95;99639.34;4157210;28;20048;-72
2021/11/20 02:40:31;;;;;;;12.95;7.90;;;;;;;7.81;93.63;99638.06;4156650;28;20103;-72
2021/11/20 02:42:31;;;;;;;10.98;7.25;;;;;;;7.83;93.56;99640.47;4155534;28;20470;-72
2021/11/20 02:44:33;;;;;;;12.82;8.05;;;;;;;7.83;93.43;99638.53;4159533;28;20465;-72
2021/11/20 02:46:41;;;;;;;15.80;7.63;;;;;;;7.84;93.79;99639.34;4158512;28;20107;-72
2021/11/20 02:48:42;;;;;;;12.65;8.25;;;;;;;7.84;93.94;99633.81;4160351;28;20098;-72
2021/11/20 02:50:47;;;;;;;15.75;9.10;;;;;;;7.87;93.40;99625.72;4156014;28;20049;-72
2021/11/20 02:52:47;;;;;;;13.45;8.75;;;;;;;7.86;93.79;99629.63;4155791;28;20045;-72
2021/11/20 02:54:49;;;;;;;12.80;8.52;;;;;;;7.85;93.59;99627.97;4159147;28;20045;-72
2021/11/20 02:57:02;;;;;;;13.60;8.77;;;;;;;7.84;93.46;99615.34;4156626;28;20037;-72
2021/11/20 02:59:03;;;;;;;12.65;8.57;;;;;;;7.85;94.15;99630.75;4159366;28;20482;-72
2021/11/20 03:01:08;;;;;;;14.68;8.43;;;;;;;7.79;93.93;99614.75;4160564;28;20394;-72
2021/11/20 03:03:08;;;;;;;16.08;9.02;;;;;;;7.83;94.28;99623.94;4159770;28;20299;-72
2021/11/20 03:05:10;;;;;;;16.73;9.13;;;;;;;7.84;94.31;99625.56;4156211;28;20041;-72
2021/11/20 03:07:12;;;;;;;12.65;9.18;;;;;;;7.84;93.61;99620.84;4155788;28;20045;-72
2021/11/20 03:09:13;;;;;;;12.77;8.05;;;;;;;7.86;93.75;99615.84;4155977;28;20281;-72
2021/11/20 03:11:15;;;;;;;13.95;8.32;;;;;;;7.88;93.66;99621.81;4157128;28;20486;-72
2021/11/20 03:13:17;;;;;;;14.52;9.10;;;;;;;7.95;93.35;99615.81;4154813;28;20111;-72
2021/11/20 03:15:17;;;;;;;13.18;8.80;;;;;;;7.95;93.44;99607.53;4155801;28;20795;-72
2021/11/20 03:17:18;;;;;;;13.60;9.05;;;;;;;7.91;93.42;99616.78;4155812;28;20087;-72
2021/11/20 03:19:20;;;;;;;13.77;9.13;;;;;;;7.91;93.10;99614.84;4156402;28;20050;-72
2021/11/20 03:21:21;;;;;;;13.30;8.70;;;;;;;7.95;93.31;99615.81;4156577;28;20034;-72
2021/11/20 03:23:30;;;;;;;13.65;8.57;;;;;;;7.94;93.03;99608.66;4154785;28;20041;-72
2021/11/20 03:25:31;;;;;;;18.05;9.13;;;;;;;7.97;92.88;99615.47;4154999;28;20545;-72
2021/11/20 03:27:31;;;;;;;14.75;9.05;;;;;;;8.04;92.86;99613.00;4155090;28;20076;-72
2021/11/20 03:29:34;;;;;;;16.08;9.68;;;;;;;8.02;92.54;99606.97;4158581;28;20346;-72
2021/11/20 03:31:34;;;;;;;16.00;9.02;;;;;;;8.01;93.07;99605.38;4154821;28;20506;-72
2021/11/20 03:33:35;;;;;;;15.48;9.07;;;;;;;7.97;92.86;99608.00;4155045;28;20103;-72
2021/11/20 03:35:36;;;;;;;14.75;9.80;;;;;;;7.94;93.24;99603.13;4155444;28;20481;-72
2021/11/20 03:37:37;;;;;;;16.35;10.10;;;;;;;7.98;93.00;99604.09;4156285;28;20501;-72
2021/11/20 03:39:38;;;;;;;14.02;9.52;;;;;;;8.01;92.82;99603.41;4159278;28;20041;-72
2021/11/20 03:41:39;;;;;;;20.23;11.15;;;;;;;7.99;92.65;99616.72;4158269;28;20490;-72
2021/11/20 03:43:41;;;;;;;15.75;10.38;;;;;;;8.01;92.93;99606.19;4160978;28;20207;-72
2021/11/20 03:45:43;;;;;;;15.27;9.88;;;;;;;8.02;92.80;99610.53;4154800;28;20052;-72
2021/11/20 03:47:44;;;;;;;16.20;9.77;;;;;;;8.00;93.04;99603.75;4154979;28;20053;-72
2021/11/20 03:49:45;;;;;;;15.63;9.93;;;;;;;8.03;92.93;99611.38;4162565;28;20204;-72
2021/11/20 03:51:46;;;;;;;15.38;10.13;;;;;;;7.97;92.82;99591.47;4156639;28;20045;-72
2021/11/20 03:53:46;;;;;;;16.77;10.13;;;;;;;7.97;93.32;99601.69;4153524;28;20417;-72
2021/11/20 03:55:48;;;;;;;16.38;9.82;;;;;;;7.96;93.49;99606.38;4157008;28;20369;-72
2021/11/20 03:57:49;;;;;;;18.85;9.75;;;;;;;7.91;93.81;99591.97;4155281;28;20049;-72
2021/11/20 03:59:50;;;;;;;14.82;9.75;;;;;;;7.92;93.70;99597.16;4154605;28;20054;-72
2021/11/20 04:01:51;;;;;;;17.15;9.90;;;;;;;7.91;93.53;99591.97;4154290;28;20061;-72
2021/11/20 04:03:52;;;;;;;16.55;9.63;;;;;;;7.89;94.17;99600.59;4154812;28;20104;-72
2021/11/20 04:05:55;;;;;;;17.27;9.80;;;;;;;7.87;93.87;99592.66;4157822;28;20052;-72
2021/11/20 04:07:55;;;;;;;16.40;9.70;;;;;;;7.92;93.76;99596.34;4156952;28;20046;-72
2021/11/20 04:09:55;;;;;;;16.10;10.07;;;;;;;7.91;93.85;99597.50;4156900;28;20048;-72
2021/11/20 04:11:56;;;;;;;16.83;9.77;;;;;;;7.90;93.68;99596.69;4160046;28;20114;-72
2021/11/20 04:13:58;;;;;;;17.17;10.13;;;;;;;7.88;93.51;99593.47;4154330;28;20377;-72
2021/11/20 04:15:58;;;;;;;16.50;9.80;;;;;;;7.88;93.75;99593.47;4154723;28;20135;-72
2021/11/20 04:17:59;;;;;;;19.13;10.23;;;;;;;7.87;93.90;99595.41;4154831;28;20439;-72
2021/11/20 04:20:00;;;;;;;19.10;11.02;;;;;;;7.87;94.22;99587.16;4155063;28;20359;-72
2021/11/20 04:22:00;;;;;;;18.48;9.63;;;;;;;7.88;94.29;99590.72;4155472;28;20034;-72
2021/11/20 04:24:01;;;;;;;18.52;10.25;;;;;;;7.90;94.08;99596.69;4154044;28;20148;-72
2021/11/20 04:26:04;;;;;;;17.30;9.63;;;;;;;7.90;93.90;99596.69;4159915;28;20095;-72
2021/11/20 04:28:05;;;;;;;15.38;9.73;;;;;;;7.91;93.85;99594.75;4159694;28;20045;-72
2021/11/20 04:30:09;;;;;;;16.63;9.55;;;;;;;7.90;94.38;99591.19;4155038;28;20733;-72
2021/11/20 04:32:10;;;;;;;16.95;10.55;;;;;;;7.87;94.27;99591.84;4154673;28;20034;-73
2021/11/20 04:34:10;;;;;;;16.38;10.32;;;;;;;7.87;94.71;99587.16;4153846;28;20763;-72
2021/11/20 04:36:12;;;;;;;16.73;10.68;;;;;;;7.91;93.88;99589.22;4155009;28;20037;-72
2021/11/20 04:38:12;;;;;;;19.35;11.02;;;;;;;7.91;94.41;99589.22;4155157;28;20407;-72
2021/11/20 04:40:14;;;;;;;18.55;10.63;;;;;;;7.89;94.38;99587.63;4154254;28;20116;-72
2021/11/20 04:42:15;;;;;;;16.70;9.32;;;;;;;7.86;94.47;99584.69;4155493;28;20037;-72
2021/11/20 04:44:15;;;;;;;19.02;10.98;;;;;;;7.84;94.71;99582.28;4158447;28;20037;-72
2021/11/20 04:46:19;;;;;;;17.20;10.65;;;;;;;7.83;94.71;99586.19;4154097;28;20517;-72
2021/11/20 04:48:20;;;;;;;15.77;10.15;;;;;;;7.85;94.43;99580.34;4154566;28;20596;-72
2021/11/20 04:50:22;;;;;;;16.85;10.43;;;;;;;7.82;95.09;99587.31;4153766;28;20037;-72
2021/11/20 04:52:23;;;;;;;15.50;9.45;;;;;;;7.82;95.38;99579.06;4154792;28;20045;-72
2021/11/20 04:54:23;;;;;;;15.77;9.40;;;;;;;7.81;95.11;99582.16;4160312;28;20053;-72
2021/11/20 04:56:26;;;;;;;13.32;8.98;;;;;;;7.79;95.04;99581.69;4156978;28;20056;-72
2021/11/20 04:58:27;;;;;;;13.57;9.30;;;;;;;7.79;95.45;99582.50;4157093;28;20037;-72
2021/11/20 05:00:32;;;;;;;14.90;9.52;;;;;;;7.78;95.31;99585.59;4157194;28;20084;-72
2021/11/20 05:02:32;;;;;;;17.77;9.93;;;;;;;7.74;95.50;99588.19;4154678;28;20052;-72
2021/11/20 05:04:34;;;;;;;17.60;9.35;;;;;;;7.78;95.86;99582.84;4154083;28;20417;-72
2021/11/20 05:06:34;;;;;;;18.08;9.98;;;;;;;7.77;95.71;99587.50;4157546;28;20041;-72
2021/11/20 05:08:34;;;;;;;16.45;9.75;;;;;;;7.81;95.50;99584.91;4157655;28;20504;-72
2021/11/20 05:10:37;;;;;;;17.42;10.60;;;;;;;7.78;95.20;99575.38;4154942;28;20038;-72
2021/11/20 05:12:38;;;;;;;15.23;9.40;;;;;;;7.77;95.16;99572.94;4154497;28;20190;-72
2021/11/20 05:14:39;;;;;;;15.15;9.75;;;;;;;7.75;95.59;99578.78;4155351;28;20033;-72
2021/11/20 05:16:39;;;;;;;18.60;10.35;;;;;;;7.77;95.77;99570.97;4154156;28;20064;-72
2021/11/20 05:18:40;;;;;;;15.95;9.13;;;;;;;7.74;95.54;99576.34;4154486;28;20045;-72
2021/11/20 05:20:41;;;;;;;20.00;10.13;;;;;;;7.74;95.94;99571.66;4154844;28;20037;-72
2021/11/20 05:22:42;;;;;;;16.20;9.63;;;;;;;7.74;95.41;99571.66;4154128;28;20607;-72
2021/11/20 05:24:43;;;;;;;14.55;9.10;;;;;;;7.74;95.54;99579.91;4153531;28;20503;-72
2021/11/20 05:26:43;;;;;;;15.85;9.88;;;;;;;7.75;95.67;99570.50;4154981;28;20049;-72
2021/11/20 05:28:52;;;;;;;14.40;9.25;;;;;;;7.74;95.60;99568.91;4155336;28;20469;-72
2021/11/20 05:30:53;;;;;;;15.75;9.38;;;;;;;7.77;95.46;99582.00;4155795;28;20041;-72
2021/11/20 05:32:55;;;;;;;14.38;9.10;;;;;;;7.75;95.98;99573.25;4155960;28;20132;-72
2021/11/20 05:34:55;;;;;;;15.02;9.00;;;;;;;7.74;96.13;99571.66;4157402;28;20477;-72
2021/11/20 05:36:56;;;;;;;13.90;8.82;;;;;;;7.73;95.70;99572.00;4154317;28;20045;-72
2021/11/20 05:38:59;;;;;;;18.20;10.05;;;;;;;7.72;95.69;99570.38;4154013;28;20045;-72
2021/11/20 05:41:00;;;;;;;14.82;9.25;;;;;;;7.72;95.68;99571.19;4154839;28;20088;-72
2021/11/20 05:43:04;;;;;;;13.95;8.98;;;;;;;7.72;95.52;99568.44;4154215;28;20048;-72
2021/11/20 05:45:05;;;;;;;17.30;9.48;;;;;;;7.71;95.88;99560.50;4152455;28;20330;-72
2021/11/20 05:47:05;;;;;;;16.67;10.13;;;;;;;7.72;96.16;99556.59;4157156;28;20055;-72
2021/11/20 05:49:07;;;;;;;14.60;8.85;;;;;;;7.70;95.89;99551.44;4161955;28;20307;-72
2021/11/20 05:51:08;;;;;;;14.00;9.23;;;;;;;7.72;95.70;99551.09;4159422;28;20482;-72
2021/11/20 05:53:14;;;;;;;14.93;9.07;;;;;;;7.71;95.76;99555.81;4158086;28;20045;-72
2021/11/20 05:55:16;;;;;;;15.43;9.23;;;;;;;7.72;96.14;99548.34;4158384;28;20083;-72
2021/11/20 05:57:17;;;;;;;16.60;9.93;;;;;;;7.74;96.03;99557.06;4157746;28;20052;-72
2021/11/20 05:59:17;;;;;;;14.15;8.50;;;;;;;7.74;96.26;99554.31;4159294;28;20045;-72
2021/11/20 06:01:17;;;;;;;14.35;8.77;;;;;;;7.74;95.65;99554.31;4159368;28;20076;-72
2021/11/20 06:03:21;;;;;;;15.85;10.18;;;;;;;7.76;95.38;99560.28;4156598;28;20087;-72
2021/11/20 06:05:22;;;;;;;20.67;9.95;;;;;;;7.78;95.35;99550.56;4157765;28;20192;-72
2021/11/20 06:07:23;;;;;;;15.90;9.77;;;;;;;7.83;95.22;99549.56;4157045;28;20042;-72
2021/11/20 06:09:23;;;;;;;15.10;9.20;;;;;;;7.83;95.00;99555.06;4157992;28;20045;-72
2021/11/20 06:11:24;;;;;;;16.48;10.27;;;;;;;7.86;94.85;99546.13;4156664;28;20034;-72
2021/11/20 06:13:26;;;;;;;13.68;9.00;;;;;;;7.86;94.99;99554.38;4156428;28;20053;-72
2021/11/20 06:15:26;;;;;;;15.32;9.13;;;;;;;7.89;94.44;99554.53;4162246;28;20494;-72
2021/11/20 06:17:27;;;;;;;15.18;9.15;;;;;;;7.88;94.84;99554.88;4156418;28;20348;-72
2021/11/20 06:19:27;;;;;;;16.20;9.18;;;;;;;7.88;94.36;99550.19;4155653;28;20065;-72
2021/11/20 06:21:28;;;;;;;15.50;9.90;;;;;;;7.91;94.61;99554.22;4156865;28;20084;-72
2021/11/20 06:23:31;;;;;;;15.30;9.57;;;;;;;7.91;94.32;99553.41;4160071;28;20033;-72
2021/11/20 06:25:31;;;;;;;14.43;8.85;;;;;;;7.86;94.65;99555.22;4160115;28;20041;-72
2021/11/20 06:27:32;;;;;;;16.60;9.93;;;;;;;7.88;94.70;99550.19;4156910;28;20110;-72
2021/11/20 06:29:32;;;;;;;16.67;10.48;;;;;;;7.86;94.96;99555.22;4157227;28;20029;-72
2021/11/20 06:31:33;;;;;;;16.05;9.38;;;;;;;7.84;94.88;99551.97;4155550;28;20084;-72
2021/11/20 06:33:33;;;;;;;16.50;9.55;;;;;;;7.86;95.31;99559.91;4156121;28;20066;-72
2021/11/20 06:35:37;;;;;;;19.58;9.43;;;;;;;7.86;95.29;99560.75;4156557;28;20053;-72
2021/11/20 06:37:39;;;;;;;17.77;9.82;;;;;;;7.86;94.95;99565.41;4157693;28;20045;-72
2021/11/20 06:39:40;;;;;;;19.10;9.50;;;;;;;7.86;95.29;99557.16;4155607;28;20148;-72
2021/11/20 06:41:41;;;;;;;15.35;9.10;;;;;;;7.84;95.05;99568.50;4156694;28;20445;-72
2021/11/20 06:43:42;;;;;;;15.98;9.48;;;;;;;7.81;94.95;99566.44;4156243;28;20046;-72
2021/11/20 06:45:45;;;;;;;13.15;8.93;;;;;;;7.79;95.73;99565.97;4158339;28;20049;-72
2021/11/20 06:47:47;;;;;;;17.60;9.40;;;;;;;7.77;95.78;99562.72;4160734;28;20045;-72
2021/11/20 06:49:48;;;;;;;16.43;10.27;;;;;;;7.80;95.50;99558.50;4159147;28;20064;-72
2021/11/20 06:51:48;;;;;;;14.32;8.82;;;;;;;7.78;95.42;99556.09;4156903;28;20473;-72
2021/11/20 06:53:49;;;;;;;15.80;10.13;;;;;;;7.76;95.51;99554.78;4156377;28;20136;-72
2021/11/20 06:55:50;;;;;;;19.90;10.07;;;;;;;7.78;95.58;99564.34;4159643;28;20350;-72
2021/11/20 06:57:54;;;;;;;16.98;10.45;;;;;;;7.81;95.41;99562.88;4155453;28;20416;-72
2021/11/20 07:02:34;;;;;;;19.52;14.20;;;;;;;7.79;95.36;99562.41;4160738;28;20043;-72
2021/11/20 07:04:34;;;;;;;18.73;14.57;;;;;;;7.81;95.63;99573.88;4155457;28;20520;-72
2021/11/20 07:06:39;;;;;;;19.45;12.70;;;;;;;7.77;95.75;99561.91;4156814;28;20049;-72
2021/11/20 07:08:41;;;;;;;17.63;12.45;;;;;;;7.77;95.84;99570.97;4155811;28;20045;-72
2021/11/20 07:10:43;;;;;;;17.05;10.55;;;;;;;7.76;96.18;99565.81;4159531;28;20049;-72
2021/11/20 07:12:44;;;;;;;16.25;10.38;;;;;;;7.74;95.81;99566.16;4156864;28;20156;-72
2021/11/20 07:14:44;;;;;;;17.30;10.40;;;;;;;7.80;95.86;99580.53;4156343;28;20550;-72
2021/11/20 07:16:46;;;;;;;16.38;10.95;;;;;;;7.75;95.71;99573.25;4158193;28;20041;-72
2021/11/20 07:18:47;;;;;;;19.45;11.27;;;;;;;7.83;95.79;99569.66;4157052;28;20144;-72
2021/11/20 07:20:48;;;;;;;17.65;11.73;;;;;;;7.80;96.02;99575.84;4157137;28;20555;-72
2021/11/20 07:22:49;;;;;;;16.55;11.38;;;;;;;7.77;96.38;99579.25;4155574;28;20064;-72
2021/11/20 07:24:49;;;;;;;16.35;11.82;;;;;;;7.74;96.53;99574.41;4158184;28;20073;-72
2021/11/20 07:26:50;;;;;;;22.35;13.15;;;;;;;7.73;96.63;99581.06;4157512;28;20064;-72
2021/11/20 07:28:51;;;;;;;17.33;11.10;;;;;;;7.71;96.64;99575.09;4157250;28;20853;-72
2021/11/20 07:30:52;;;;;;;18.30;11.13;;;;;;;7.72;96.84;99582.19;4156192;28;20057;-72
2021/11/20 07:32:54;;;;;;;21.50;11.23;;;;;;;7.71;96.93;99580.59;4156198;28;20358;-72
2021/11/20 07:34:55;;;;;;;19.23;11.75;;;;;;;7.73;96.55;99581.06;4155524;28;20044;-72
2021/11/20 07:36:57;;;;;;;19.17;12.00;;;;;;;7.71;96.88;99574.28;4157718;28;20053;-72
2021/11/20 07:38:58;;;;;;;20.90;12.90;;;;;;;7.74;96.27;99582.66;4158422;28;20447;-72
2021/11/20 07:40:59;;;;;;;25.52;14.35;;;;;;;7.75;96.50;99581.53;4156993;28;20040;-72
2021/11/20 07:42:59;;;;;;;25.30;14.10;;;;;;;7.77;96.51;99581.19;4158089;28;20120;-72
2021/11/20 07:45:02;;;;;;;22.58;13.50;;;;;;;7.76;96.47;99577.63;4157553;28;20038;-72
2021/11/20 07:47:03;;;;;;;;;;;;;;;7.76;96.37;99579.59;4157276;28;20029;-72
2021/11/20 07:49:05;;;;;;;17.30;10.73;;;;;;;7.72;96.30;99568.44;4158293;28;19936;-72
2021/11/20 07:51:07;;;;;;;20.92;11.95;;;;;;;7.73;96.37;99564.53;4159601;28;20502;-72
2021/11/20 07:53:08;;;;;;;17.50;9.90;;;;;;;7.75;96.87;99561.44;4155911;28;20045;-72
2021/11/20 07:55:11;;;;;;;16.13;9.95;;;;;;;7.74;95.74;99570.84;4160362;28;20220;-72
2021/11/20 07:57:12;;;;;;;15.32;9.05;;;;;;;7.75;96.38;99564.19;4157058;28;20497;-72
2021/11/20 07:59:14;;;;;;;15.43;8.85;;;;;;;7.75;96.39;99567.75;4156715;28;20045;-72
2021/11/20 08:01:16;;;;;;;17.02;10.13;;;;;;;7.76;96.05;99565.81;4155004;28;20042;-72
2021/11/20 08:03:17;;;;;;;22.48;12.93;;;;;;;7.78;96.40;99563.53;4160192;28;20091;-72
2021/11/20 08:05:18;;;;;;;20.40;11.88;;;;;;;7.79;95.83;99562.41;4160234;28;20528;-72
2021/11/20 08:07:19;;;;;;;22.77;12.55;;;;;;;7.78;95.99;99567.09;4155236;28;20042;-72
2021/11/20 08:09:19;;;;;;;21.85;11.63;;;;;;;7.77;96.23;99557.19;4154372;28;20091;-72
2021/11/20 08:11:19;;;;;;;22.55;13.82;;;;;;;7.83;95.83;99560.59;4159387;28;20037;-72
2021/11/20 08:13:20;;;;;;;30.77;16.73;;;;;;;7.83;96.03;99555.06;4155926;28;20041;-72
2021/11/20 08:15:21;;;;;;;28.35;15.15;;;;;;;7.85;95.68;99556.34;4159438;28;20117;-72
2021/11/20 08:17:22;;;;;;;21.95;15.13;;;;;;;7.96;95.05;99564.25;4155024;28;20466;-72
2021/11/20 08:19:23;;;;;;;23.73;14.48;;;;;;;7.93;94.51;99543.66;4154651;28;20046;-72
2021/11/20 08:21:24;;;;;;;24.63;14.85;;;;;;;7.97;94.24;99552.06;4157280;28;20053;-72
2021/11/20 08:23:24;;;;;;;24.48;13.00;;;;;;;7.96;94.68;99551.28;4155501;28;20041;-72
2021/11/20 08:25:27;;;;;;;21.45;11.73;;;;;;;7.96;94.63;99550.47;4156763;28;20453;-72
2021/11/20 08:27:27;;;;;;;19.15;10.73;;;;;;;7.99;94.05;99549.78;4160895;28;20041;-72
2021/11/20 08:29:30;;;;;;;28.80;19.83;;;;;;;7.96;94.10;99548.50;4154745;28;20374;-72
2021/11/20 08:31:31;;;;;;;;;;;;;;;7.99;94.32;99538.75;4155951;28;20657;-72
2021/11/20 08:33:32;;;;;;;20.48;11.23;;;;;;;7.98;94.40;99537.16;4157971;28;19913;-72
2021/11/20 08:35:33;;;;;;;18.13;11.10;;;;;;;7.98;94.24;99535.19;4155924;28;20481;-72
2021/11/20 08:37:34;;;;;;;20.75;12.90;;;;;;;7.99;93.90;99536.00;4158469;28;20054;-72
2021/11/20 08:39:35;;;;;;;20.52;10.63;;;;;;;8.03;93.46;99534.22;4154483;28;20064;-72
2021/11/20 08:41:37;;;;;;;17.05;10.88;;;;;;;8.01;93.59;99544.75;4155949;28;20393;-72
2021/11/20 08:43:38;;;;;;;16.27;8.65;;;;;;;8.12;90.78;99538.50;4154658;28;20390;-72
2021/11/20 08:45:43;;;;;;;14.80;8.63;;;;;;;8.15;90.17;99535.06;4154308;28;20038;-72
2021/11/20 08:47:48;;;;;;;17.95;9.05;;;;;;;8.17;89.88;99543.81;4154835;28;20477;-72
2021/11/20 08:49:50;;;;;;;16.73;8.82;;;;;;;8.26;89.17;99538.22;4155409;28;20092;-72
2021/11/20 08:51:52;;;;;;;15.20;8.03;;;;;;;8.29;87.64;99531.25;4154059;28;20648;-72
2021/11/20 08:53:54;;;;;;;;;;;;;;;8.32;87.27;99536.88;4153981;28;20272;-72
2021/11/20 08:55:55;;;;;;;13.25;7.93;;;;;;;8.32;86.59;99522.28;4157004;28;19920;-72
2021/11/20 08:57:57;;;;;;;12.48;6.85;;;;;;;8.29;86.92;99534.81;4156231;28;20288;-72
2021/11/20 09:00:06;;;;;;;14.20;7.70;;;;;;;8.30;85.78;99532.84;4153729;28;20491;-72
2021/11/20 09:02:18;;;;;;;12.20;8.25;;;;;;;8.32;86.01;99523.09;4153107;28;20481;-72
2021/11/20 09:04:27;;;;;;;13.63;7.90;;;;;;;8.26;86.76;99524.44;4154551;28;20044;-72
2021/11/20 09:06:41;;;;;;;13.27;7.90;;;;;;;8.34;85.99;99528.25;4158355;28;20132;-72
2021/11/20 09:08:44;;;;;;;13.68;8.80;;;;;;;8.32;85.61;99523.09;4160799;28;20452;-72
2021/11/20 09:10:48;;;;;;;12.70;8.10;;;;;;;8.28;85.86;99524.94;4154642;28;20045;-72
2021/11/20 09:12:57;;;;;;;12.10;8.00;;;;;;;8.28;86.05;99519.41;4154920;28;20046;-72
2021/11/20 09:15:04;;;;;;;16.27;8.82;;;;;;;8.27;86.09;99525.25;4154297;28;20131;-72
2021/11/20 09:17:05;;;;;;;13.65;8.55;;;;;;;8.32;86.31;99519.53;4159737;28;20052;-72
2021/11/20 09:19:08;;;;;;;16.08;8.07;;;;;;;8.29;86.96;99520.22;4154873;28;20331;-72
2021/11/20 09:21:13;;;;;;;14.15;7.80;;;;;;;8.27;87.00;99520.53;4155048;28;20045;-72
2021/11/20 09:23:15;;;;;;;16.58;9.18;;;;;;;8.25;87.11;99513.75;4158941;28;20545;-72
2021/11/20 09:25:17;;;;;;;15.60;9.52;;;;;;;8.26;87.77;99524.44;4162753;28;20084;-72
2021/11/20 09:27:17;;;;;;;17.67;10.27;;;;;;;8.25;87.36;99517.31;4162078;28;20048;-72
2021/11/20 09:29:19;;;;;;;13.43;8.63;;;;;;;8.26;88.03;99512.59;4160200;28;20275;-72
2021/11/20 09:31:21;;;;;;;15.60;9.67;;;;;;;8.26;87.91;99523.63;4156502;28;20033;-72
2021/11/20 09:33:22;;;;;;;16.55;9.57;;;;;;;8.25;88.02;99511.78;4157341;28;20280;-72
2021/11/20 09:35:23;;;;;;;19.15;10.77;;;;;;;8.26;88.14;99513.41;4161912;28;20389;-72
2021/11/20 09:37:23;;;;;;;15.60;9.43;;;;;;;8.23;89.16;99505.00;4156915;28;20041;-72
2021/11/20 09:39:29;;;;;;;15.40;9.93;;;;;;;8.27;88.84;99511.44;4158407;28;20463;-72